Racine, Wisconsin
Current Conditions -  °F | °C
As of 10:53 AM on Monday 22 Dec 2014 (Local Time) from KRAC Reporting Station
Haze Haze  
Wind Chill: -1°   Ceiling: 1100
Heat Index:   Visibility: 5mi
Dew Point:   Wind: 10mph
Humidity: 82%   Direction: 130°SE
Pressure: 29.89"   Gusts: 18mph
Location:  42.73°N, 87.79°W
Report Text: KRAC 221653Z AUTO 13009G16KT 5SM HZ OVC011 03/00 A2989 RMK AO2 SLP126 T00280000
Loading
Personal Weather Stations






























Interactive Weather Map New forecast layout! Learn more

10-Day Weather Forecast

Advertisements
Track Severe Weather on mobile